Etusivu
METAR-TAF:

METAR-TAF

Lentoasemat :

Xi’an Xianyangin kansainvälinen lentoasema

Xi’an, Kiina

Leveyspiiri: 34-26N, Pituuspiiri: 108-45E, korkeus merenpinnasta: 479 m

Tämänhetkinen sää

Tämä raportti tehtiin 53 minuuttia sitten, kello 13.00 UTC
Tuuli 4 kn pohjoisesta/koillisesta
Lämpötila 25°C
Kosteus 50%
Ilmanpaine 1002 hPa
Näkyvyys 10 km tai enemmän
ei pilviä alle 1500 m:ssä eikä cumulonimbus-pilviä

METAR: ZLXY 241300Z 03002MPS CAVOK 25/14 Q1002 NOSIG

Aika: 21:53 (13:53 UTC)

Sääennuste

Tämä raportti tehtiin 4 tuntia ja 28 minuuttia sitten, kello 09.25 UTC
Ennuste voimassa 24. päivästä klo 12 UTC - 25. päivään klo 12 UTC
Tuuli 6 kn idästä/koillisesta
Näkyvyys: 3000 m
usvaa
Ajoittain
24. päivästä klo 18 UTC - 24. päivään klo 24 UTC
vesikuuroja

TAF: ZLXY 240925Z 2412/2512 06003MPS 3000 HZ NSC TX29/2508Z TN18/2422Z TEMPO 2418/2424 SHRA

Säähavainnot ja -ennusteet yli 4000 lentoasemalta (METAR- ja TAF-raportit).

Käytössä olevat sääasemat on merkitty karttaan keltaisilla ja punaisilla pisteillä.

Aseta hiiri pisteen päälle nähdäksesi sääaseman nimen.

Klikkaa sitten nähdäksesi säähavainnot ja -ennusteet.

Kartan vaihtaminen: klikkaa mustalla rastilla varustettuja vihreitä pisteitä, niin voit zoomata sisään; viivalla varustettua vihreää pistettä, niin voit zoomata ulos tai vihreitä nuolia, niin pääset viereisille kartoille.


METAR-TAF: